Joelton, TN

3:19 PM CDT on September 02, 2014 (GMT -0500)
Clarksville | Change Station
CLOSE
Current Station
Airport
Location: Clarksville,
Elevation: 548 ft
Nearby Weather Stations

Elev 548 ft 36.62 °N, 87.41 °W | Updated 2061 days ago

Thunderstorm
Thunderstorm
82 °F
Feels Like 86 °F
N
8
Wind Variable Wind from SW
Gusts 9 mph

Today
High -- | Low -- °F
--% Chance of Precip.
Yesterday
High -- | Low -- °F
Precip. -- in
6:19 AM 7:14 PM
First Quarter, 54% visible
Pressure 29.89 in
Visibility 4.0 miles
Clouds Mostly Cloudy 600 ft
Overcast 1400 ft
Heat Index 86 °F
Dew Point 70 °F
Humidity 63%
Rainfall 0.69 in
Snow Depth Not available.
UV 1 out of 12
Pollen 10.50 out of 12
Ozone Good
PM2.5 Good
Flu Activity Not available.
SPECI KCKV 101659Z AUTO 28007KT 4SM BR BKN006 OVC014 14/13 A2989 RMK AO2 CIG 005V011 $

More Conditions Fewer Conditions

Pressure 29.89 in
Visibility 4.0 miles
Clouds Mostly Cloudy 600 ft
Overcast 1400 ft
Heat Index 86 °F
Dew Point 70 °F
Humidity 63%
Rainfall 0.69 in
Snow Depth Not available.
UV 1 out of 12
Pollen 10.50 out of 12
Ozone Good
PM2.5 Good
Flu Activity Not available.
SPECI KCKV 101659Z AUTO 28007KT 4SM BR BKN006 OVC014 14/13 A2989 RMK AO2 CIG 005V011 $

More Conditions Fewer Conditions

10-Day Weather Forecast

Almanac

Astronomy

Sep. 02, 2014 Rise Set
Actual Time 6:19 AM CDT 7:14 PM CDT
Civil Twilight 5:53 AM CDT 7:40 PM CDT
Nautical Twilight 5:22 AM CDT 8:11 PM CDT
Astronomical Twilight 4:50 AM CDT 8:43 PM CDT
Moon 1:51 PM CDT No Moon Set
Length of Visible Light 13h 46m
Length of Day
12h 54m
Tomorrow will be 2m 13s shorter.
First Quarter, 54% of the Moon is Illuminated
Today
First Quarter
Sep 8
Full
Sep 15
Last Quarter
Sep 24
New
Oct 1
First Quarter

Today's Extremes

State Highs State Lows

Community

WunderPhotos

Upload Photos

1,749,752 photos uploaded!

WunderBlogs® & News

By Dr. Jeff Masters
Director of Meteorology, Weather Underground
By Kari Strenfel
Meteorologist, Weather Underground
By Christopher C. Burt
Weather Historian, Weather Underground
September 2, 2014
September 2, 2014
September 2, 2014

Nearby

Air Quality

  Air Quality AQ Index Pollutant
Yesterday Moderate
PM2.5
Yesterday Good
OZONE
Current Good
PM2.5
Current Good
OZONE
Tuesday Moderate
PM2.5
Tuesday Good
OZONE
Wednesday Good
PM2.5
Wednesday Good
OZONE
Thursday Moderate
OZONE
Thursday Good
PM2.5

Snow Depth

Station Depth Elevation
No new snow has been reported.

Earthquake Activity

City Distance Mag. Time & Date
No recent earthquake activity has been reported nearby.
Minimum magnitude displayed is 2.5.

Coastal Water Temperatures

Place Temperature
No Stations Reporting

Nearby Weather Stations